Time;durP1;ratioP1;P1;durP2;ratioP2;P2;SDS_P1;SDS_P2;PMS_P1;PMS_P2;Temp;Humidity;BMP_temperature;BMP_pressure;BME280_temperature;BME280_humidity;BME280_pressure;Samples;Min_cycle;Max_cycle;Signal;HPM_P1;HPM_P2
2022/08/17 00:00:46;;;;;;;50.28;41.40;;;18.30;99.90;;;;;;5080696;28;20061;-65
2022/08/17 00:03:12;;;;;;;42.63;37.10;;;18.30;99.90;;;;;;5097522;28;20100;-65
2022/08/17 00:05:51;;;;;;;44.97;38.15;;;18.20;99.90;;;;;;5115671;28;20039;-65
2022/08/17 00:08:21;;;;;;;39.45;35.15;;;18.20;99.90;;;;;;5078545;28;20345;-65
2022/08/17 00:10:48;;;;;;;55.47;41.40;;;18.10;99.90;;;;;;5080350;28;20055;-65
2022/08/17 00:13:28;;;;;;;54.00;38.50;;;18.10;99.90;;;;;;5115517;28;20052;-65
2022/08/17 00:16:02;;;;;;;49.53;38.63;;;18.00;99.90;;;;;;5097494;28;20427;-65
2022/08/17 00:18:29;;;;;;;37.47;32.80;;;17.90;99.90;;;;;;5097088;28;20047;-65
2022/08/17 00:20:56;;;;;;;48.38;40.33;;;17.90;99.90;;;;;;5080239;28;20044;-65
2022/08/17 00:23:23;;;;;;;60.03;46.75;;;17.80;99.90;;;;;;5115549;28;20043;-64
2022/08/17 00:25:49;;;;;;;59.00;45.30;;;17.80;99.90;;;;;;5114764;28;20054;-65
2022/08/17 00:28:15;;;;;;;60.13;46.97;;;17.80;99.90;;;;;;5115311;28;20035;-65
2022/08/17 00:30:43;;;;;;;58.58;46.88;;;17.80;99.90;;;;;;5096917;28;20044;-65
2022/08/17 00:33:14;;;;;;;82.53;53.00;;;17.80;99.90;;;;;;5080009;28;20039;-65
2022/08/17 00:35:41;;;;;;;140.40;61.55;;;17.80;99.90;;;;;;5096890;28;20049;-65
2022/08/17 00:38:08;;;;;;;169.73;65.63;;;17.80;99.90;;;;;;5095387;28;20043;-65
2022/08/17 00:41:08;;;;;;;57.22;44.72;;;17.80;99.90;;;;;;5096454;28;20472;-65
2022/08/17 00:43:43;;;;;;;125.47;58.72;;;17.80;99.90;;;;;;5047400;28;20048;-65
2022/08/17 00:46:22;;;;;;;83.85;55.05;;;17.80;99.90;;;;;;5096988;28;20036;-64
2022/08/17 00:48:49;;;;;;;55.45;44.08;;;17.80;99.90;;;;;;5115014;28;20090;-65
2022/08/17 00:51:20;;;;;;;136.65;61.40;;;17.80;99.90;;;;;;5114472;28;20108;-65
2022/08/17 00:53:52;;;;;;;107.65;53.08;;;17.80;99.90;;;;;;5095661;28;20040;-65
2022/08/17 00:56:25;;;;;;;64.72;48.22;;;17.80;99.90;;;;;;5095539;28;20039;-64
2022/08/17 00:58:53;;;;;;;79.40;52.38;;;17.80;99.90;;;;;;5078644;28;20495;-65
2022/08/17 01:01:19;;;;;;;77.75;50.65;;;17.80;99.90;;;;;;5078460;28;20031;-65
2022/08/17 01:03:45;;;;;;;73.40;52.67;;;17.90;99.90;;;;;;5078547;28;20488;-65
2022/08/17 01:06:12;;;;;;;70.40;51.15;;;18.00;99.90;;;;;;5078586;28;20039;-65
2022/08/17 01:08:39;;;;;;;64.03;46.22;;;18.00;99.90;;;;;;5076279;28;20051;-65
2022/08/17 01:11:06;;;;;;;61.25;46.88;;;18.00;99.90;;;;;;5095128;28;20051;-65
2022/08/17 01:13:39;;;;;;;60.22;46.40;;;18.10;99.90;;;;;;5113430;28;20499;-65
2022/08/17 01:16:15;;;;;;;71.38;51.33;;;18.10;99.90;;;;;;5113539;28;20039;-65
2022/08/17 01:18:43;;;;;;;54.92;44.85;;;18.10;99.90;;;;;;5078272;28;20043;-65
2022/08/17 01:21:35;;;;;;;59.30;44.47;;;18.10;99.90;;;;;;5094885;28;20074;-65
2022/08/17 01:24:01;;;;;;;51.42;41.03;;;18.00;99.90;;;;;;5095290;28;20392;-65
2022/08/17 01:26:29;;;;;;;44.25;36.90;;;18.00;99.90;;;;;;5113237;28;20040;-65
2022/08/17 01:28:55;;;;;;;50.10;39.75;;;17.90;99.90;;;;;;5094954;28;20492;-65
2022/08/17 01:31:23;;;;;;;56.97;38.13;;;17.80;99.90;;;;;;5078003;28;20047;-65
2022/08/17 01:33:49;;;;;;;86.20;39.60;;;17.70;99.90;;;;;;5094851;28;20044;-65
2022/08/17 01:36:14;;;;;;;85.82;37.75;;;17.60;99.90;;;;;;5094240;28;20092;-65
2022/08/17 01:38:40;;;;;;;111.90;40.30;;;17.60;99.90;;;;;;5092167;28;20523;-65
2022/08/17 01:41:11;;;;;;;60.58;35.38;;;17.50;99.90;;;;;;5094745;28;20027;-65
2022/08/17 01:43:51;;;;;;;46.60;34.55;;;17.40;99.90;;;;;;5112994;28;20035;-65
2022/08/17 01:46:25;;;;;;;127.80;44.03;;;17.40;99.90;;;;;;5094546;28;20043;-65
2022/08/17 01:48:52;;;;;;;188.88;49.58;;;17.30;99.90;;;;;;5094596;28;20039;-65
2022/08/17 01:51:19;;;;;;;66.85;40.97;;;17.40;99.90;;;;;;5094534;28;20574;-65
2022/08/17 01:53:53;;;;;;;62.75;39.10;;;17.30;99.90;;;;;;5094937;28;20442;-65
2022/08/17 01:56:23;;;;;;;62.45;40.85;;;17.40;99.90;;;;;;5112689;28;20042;-65
2022/08/17 01:58:49;;;;;;;52.10;38.78;;;17.30;99.90;;;;;;5094351;28;20059;-64
2022/08/17 02:01:19;;;;;;;102.07;46.38;;;17.30;99.90;;;;;;5112538;28;20035;-64
2022/08/17 02:03:45;;;;;;;107.60;49.40;;;17.30;99.90;;;;;;5112768;28;20032;-64
2022/08/17 02:06:11;;;;;;;95.13;49.90;;;17.40;99.90;;;;;;5094325;28;20047;-64
2022/08/17 02:08:37;;;;;;;133.98;50.50;;;17.50;99.90;;;;;;5092281;28;20043;-65
2022/08/17 02:11:10;;;;;;;110.65;47.60;;;17.50;99.90;;;;;;5094142;28;20062;-65
2022/08/17 02:13:36;;;;;;;241.23;63.08;;;17.50;99.90;;;;;;5112450;28;20087;-65
2022/08/17 02:16:03;;;;;;;145.57;52.78;;;17.60;99.90;;;;;;5077641;28;20061;-65
2022/08/17 02:18:29;;;;;;;103.72;46.33;;;17.60;99.90;;;;;;5094143;28;20050;-65
2022/08/17 02:20:55;;;;;;;104.57;45.17;;;17.60;99.90;;;;;;5094352;28;20621;-65
2022/08/17 02:23:23;;;;;;;166.23;54.90;;;17.60;99.90;;;;;;5077513;28;20056;-65
2022/08/17 02:25:49;;;;;;;106.13;45.63;;;17.60;99.90;;;;;;5077575;28;20039;-66
2022/08/17 02:28:16;;;;;;;115.70;46.22;;;17.60;99.90;;;;;;5094398;28;20040;-65
2022/08/17 02:30:43;;;;;;;110.15;51.22;;;17.60;99.90;;;;;;5094041;28;20031;-65
2022/08/17 02:33:10;;;;;;;186.77;63.28;;;17.60;99.90;;;;;;5077169;28;20042;-65
2022/08/17 02:35:37;;;;;;;115.03;50.45;;;17.60;99.90;;;;;;5094248;28;20407;-65
2022/08/17 02:38:05;;;;;;;196.82;55.83;;;17.60;99.90;;;;;;5093387;28;20044;-65
2022/08/17 02:40:33;;;;;;;123.05;53.63;;;17.70;99.90;;;;;;5092435;28;20556;-65
2022/08/17 02:42:59;;;;;;;87.78;47.15;;;17.60;99.90;;;;;;5112369;28;20039;-66
2022/08/17 02:45:25;;;;;;;67.38;44.88;;;17.60;99.90;;;;;;5094037;28;20043;-65
2022/08/17 02:47:52;;;;;;;79.80;44.78;;;17.60;99.90;;;;;;5078204;28;20470;-66
2022/08/17 02:50:21;;;;;;;58.40;39.10;;;17.60;99.90;;;;;;5098053;28;20040;-66
2022/08/17 02:52:49;;;;;;;65.70;42.80;;;17.60;99.90;;;;;;5098243;28;20047;-66
2022/08/17 02:55:24;;;;;;;127.85;54.58;;;17.60;99.90;;;;;;5116398;28;20039;-66
2022/08/17 02:57:51;;;;;;;52.75;39.83;;;17.60;99.90;;;;;;5116291;28;20424;-66
2022/08/17 03:00:24;;;;;;;53.80;39.20;;;17.70;99.90;;;;;;5097924;28;20054;-66
2022/08/17 03:02:50;;;;;;;56.25;39.33;;;17.70;99.90;;;;;;5097675;28;20036;-65
2022/08/17 03:05:20;;;;;;;62.33;40.33;;;17.70;99.90;;;;;;5097970;28;20185;-66
2022/08/17 03:07:46;;;;;;;;;;;17.70;99.90;;;;;;5116337;28;20075;-66
2022/08/17 03:10:13;;;;;;;55.13;37.20;;;17.70;99.90;;;;;;5113322;28;20199;-66
2022/08/17 03:12:41;;;;;;;60.22;39.20;;;17.70;99.90;;;;;;5080918;28;20050;-66
2022/08/17 03:15:10;;;;;;;189.18;57.90;;;17.70;99.90;;;;;;5097771;28;20248;-66
2022/08/17 03:17:36;;;;;;;59.00;37.85;;;17.70;99.90;;;;;;5080876;28;20403;-66
2022/08/17 03:20:04;;;;;;;77.93;42.72;;;17.70;99.90;;;;;;5115594;28;20110;-66
2022/08/17 03:22:36;;;;;;;61.67;39.63;;;17.70;99.90;;;;;;5097388;28;20035;-66
2022/08/17 03:25:03;;;;;;;56.08;37.72;;;17.70;99.90;;;;;;5097413;28;20073;-66
2022/08/17 03:27:29;;;;;;;72.65;39.38;;;17.70;99.90;;;;;;5115692;28;20050;-66
2022/08/17 03:29:55;;;;;;;114.53;50.53;;;17.70;99.90;;;;;;5097260;28;20035;-65
2022/08/17 03:32:20;;;;;;;104.07;46.75;;;17.70;99.90;;;;;;5097166;28;20079;-66
2022/08/17 03:34:47;;;;;;;103.95;48.00;;;17.70;99.90;;;;;;5080198;28;20075;-66
2022/08/17 03:37:13;;;;;;;95.72;43.50;;;17.70;99.90;;;;;;5097337;28;20084;-66
2022/08/17 03:39:39;;;;;;;94.85;46.78;;;17.60;99.90;;;;;;5094579;28;20040;-66
2022/08/17 03:42:13;;;;;;;72.85;40.90;;;17.60;99.90;;;;;;5096939;28;20062;-66
2022/08/17 03:44:39;;;;;;;56.15;36.35;;;17.60;99.90;;;;;;5080293;28;20051;-66
2022/08/17 03:58:01;;;;;;;72.13;43.05;;;17.60;99.90;;;;;;5114962;28;20047;-66
2022/08/17 04:00:27;;;;;;;54.83;39.90;;;17.60;99.90;;;;;;5095826;28;20047;-67
2022/08/17 04:02:53;;;;;;;60.10;39.03;;;17.60;99.90;;;;;;5079684;28;20047;-67
2022/08/17 04:05:19;;;;;;;50.42;38.83;;;17.70;99.90;;;;;;5096624;28;20035;-66
2022/08/17 04:07:46;;;;;;;144.57;57.00;;;17.60;99.90;;;;;;5079658;28;20077;-67
2022/08/17 04:10:12;;;;;;;54.17;39.85;;;17.60;99.90;;;;;;5112112;28;20044;-67
2022/08/17 04:12:48;;;;;;;67.63;43.47;;;17.70;99.90;;;;;;5114893;28;20080;-66
2022/08/17 04:15:14;;;;;;;62.78;42.70;;;17.70;99.90;;;;;;5114854;28;20119;-66
2022/08/17 04:17:43;;;;;;;69.03;43.10;;;17.70;99.90;;;;;;5079462;28;20047;-66
2022/08/17 04:20:11;;;;;;;57.85;41.67;;;17.70;99.90;;;;;;5096582;28;20082;-66
2022/08/17 04:22:37;;;;;;;61.13;42.10;;;17.70;99.90;;;;;;5096068;28;20035;-66
2022/08/17 04:25:24;;;;;;;86.47;48.83;;;17.70;99.90;;;;;;5096212;28;20118;-66
2022/08/17 04:27:50;;;;;;;71.57;45.58;;;17.70;99.90;;;;;;5096155;28;20075;-66
2022/08/17 04:30:15;;;;;;;66.38;45.03;;;17.80;99.90;;;;;;5096371;28;20071;-66
2022/08/17 04:33:04;;;;;;;62.47;45.17;;;17.70;99.90;;;;;;5096275;28;20055;-66
2022/08/17 04:35:35;;;;;;;70.80;47.63;;;17.80;99.90;;;;;;5096322;28;20100;-68
2022/08/17 04:38:01;;;;;;;64.25;44.80;;;17.80;99.90;;;;;;5096250;28;20039;-69
2022/08/17 04:43:15;;;;;;;61.00;43.58;;;17.80;99.90;;;;;;5095735;28;20051;-69
2022/08/17 04:45:56;;;;;;;65.28;45.90;;;17.80;99.90;;;;;;5114069;28;20051;-70
2022/08/17 04:48:29;;;;;;;61.55;41.58;;;17.90;99.90;;;;;;5095694;28;20045;-71
2022/08/17 04:50:58;;;;;;;87.88;50.78;;;17.90;99.90;;;;;;5078792;28;20059;-71
2022/08/17 04:53:24;;;;;;;76.28;48.72;;;17.90;99.90;;;;;;5095637;28;20097;-71
2022/08/17 04:55:52;;;;;;;75.53;48.45;;;17.90;99.90;;;;;;5095820;28;20039;-71
2022/08/17 04:58:18;;;;;;;86.15;49.85;;;18.00;99.90;;;;;;5095884;28;20096;-71
2022/08/17 05:00:44;;;;;;;95.75;54.58;;;18.00;99.90;;;;;;5095699;28;20088;-71
2022/08/17 05:03:10;;;;;;;80.25;50.35;;;18.00;99.90;;;;;;5095469;28;20445;-72
2022/08/17 05:05:38;;;;;;;69.85;50.05;;;18.10;99.90;;;;;;5113810;28;20403;-72
2022/08/17 05:08:06;;;;;;;74.90;48.40;;;18.10;99.90;;;;;;5113594;28;20552;-72
2022/08/17 05:10:35;;;;;;;79.15;51.08;;;18.10;99.90;;;;;;5111292;28;20043;-72
2022/08/17 05:13:20;;;;;;;133.38;60.35;;;18.20;99.90;;;;;;5095508;28;20048;-72
2022/08/17 05:15:48;;;;;;;82.93;52.90;;;18.20;99.90;;;;;;5095513;28;20427;-71
2022/08/17 05:18:14;;;;;;;80.65;50.38;;;18.20;99.90;;;;;;5095303;28;20099;-71
2022/08/17 05:20:41;;;;;;;74.15;50.80;;;18.20;99.90;;;;;;5095056;28;20510;-71
2022/08/17 05:23:10;;;;;;;73.63;48.90;;;18.30;99.90;;;;;;5113268;28;20089;-72
2022/08/17 05:25:57;;;;;;;63.83;47.33;;;18.30;99.90;;;;;;5113525;28;20101;-71
2022/08/17 05:28:26;;;;;;;72.43;49.67;;;18.30;99.90;;;;;;5094973;28;20491;-71
2022/08/17 05:30:54;;;;;;;90.53;54.70;;;18.30;99.90;;;;;;5095225;28;20112;-71
2022/08/17 05:33:26;;;;;;;73.65;49.95;;;18.30;99.90;;;;;;5095193;28;20101;-72
2022/08/17 05:35:55;;;;;;;60.30;46.63;;;18.40;99.90;;;;;;5094876;28;20055;-72
2022/08/17 05:38:23;;;;;;;72.00;50.13;;;18.40;99.90;;;;;;5092363;28;20075;-72
2022/08/17 05:40:49;;;;;;;58.20;45.25;;;18.40;99.90;;;;;;5094959;28;20035;-72
2022/08/17 05:43:20;;;;;;;69.28;49.15;;;18.40;99.90;;;;;;5077810;28;20102;-71
2022/08/17 05:46:13;;;;;;;78.00;51.03;;;18.40;99.90;;;;;;5094711;28;20522;-71
2022/08/17 05:48:45;;;;;;;77.60;51.17;;;18.40;99.90;;;;;;5094584;28;20040;-72
2022/08/17 05:51:29;;;;;;;99.43;57.40;;;18.50;99.90;;;;;;5094549;28;20053;-71
2022/08/17 05:54:38;;;;;;;68.00;49.20;;;18.50;99.90;;;;;;5094821;28;20130;-72
2022/08/17 05:57:14;;;;;;;72.95;49.65;;;18.50;99.90;;;;;;5094484;28;20496;-70
2022/08/17 05:59:52;;;;;;;111.90;61.55;;;18.60;99.90;;;;;;5094457;28;20044;-70
2022/08/17 06:02:53;;;;;;;87.00;56.67;;;18.60;99.90;;;;;;5094351;28;20607;-71
2022/08/17 06:05:37;;;;;;;89.40;55.45;;;18.60;99.90;;;;;;5094585;28;20056;-71
2022/08/17 06:08:18;;;;;;;82.68;52.08;;;18.60;99.90;;;;;;5112569;28;20046;-70
2022/08/17 06:11:03;;;;;;;99.70;57.40;;;18.70;99.90;;;;;;5111873;28;20055;-68
2022/08/17 06:13:41;;;;;;;87.35;54.15;;;18.70;99.90;;;;;;5094987;28;20158;-67
2022/08/17 06:16:23;;;;;;;80.25;52.47;;;18.70;99.90;;;;;;5076494;28;20039;-68
2022/08/17 06:19:01;;;;;;;87.57;52.63;;;18.70;99.90;;;;;;5113032;28;20044;-70
2022/08/17 06:21:32;;;;;;;99.20;54.30;;;18.80;99.90;;;;;;5077961;28;20046;-69
2022/08/17 06:24:04;;;;;;;90.90;55.47;;;18.80;99.90;;;;;;5094101;28;20541;-68
2022/08/17 06:26:38;;;;;;;84.28;52.17;;;18.80;99.90;;;;;;5113363;28;20471;-68
2022/08/17 06:29:22;;;;;;;78.78;51.35;;;18.80;99.90;;;;;;5094890;28;20038;-69
2022/08/17 06:31:49;;;;;;;83.68;52.60;;;18.90;99.90;;;;;;5113020;28;20071;-69
2022/08/17 06:34:15;;;;;;;92.45;56.45;;;18.90;99.90;;;;;;5077896;28;20048;-69
2022/08/17 06:37:01;;;;;;;96.60;57.22;;;19.00;99.90;;;;;;5094819;28;20040;-69
2022/08/17 06:40:01;;;;;;;92.20;55.47;;;19.10;99.90;;;;;;5075334;28;20488;-69
2022/08/17 06:43:11;;;;;;;91.00;55.28;;;19.10;99.90;;;;;;5077821;28;20032;-68
2022/08/17 06:45:57;;;;;;;74.85;51.03;;;19.10;99.90;;;;;;4994096;28;20050;-68
2022/08/17 06:48:56;;;;;;;107.13;58.60;;;19.10;99.90;;;;;;5107627;28;20035;-69
2022/08/17 06:51:39;;;;;;;124.63;61.67;;;19.10;99.90;;;;;;5035632;28;20539;-69
2022/08/17 06:54:17;;;;;;;91.90;55.47;;;19.10;99.90;;;;;;5094638;28;20043;-68
2022/08/17 06:56:52;;;;;;;99.60;57.67;;;19.10;99.90;;;;;;5093891;28;20055;-66
2022/08/17 06:59:25;;;;;;;136.50;65.40;;;19.20;99.90;;;;;;5112114;28;20524;-65
2022/08/17 07:01:51;;;;;;;111.75;60.65;;;19.20;99.90;;;;;;5094504;28;20047;-66
2022/08/17 07:04:25;;;;;;;115.55;60.72;;;19.20;99.90;;;;;;5094527;28;20036;-66
2022/08/17 07:08:00;;;;;;;111.50;59.97;;;19.20;99.90;;;;;;5077879;28;20043;-67
2022/08/17 07:09:55;;;;;;;101.75;58.70;;;19.30;99.90;;;;;;5092054;28;20096;-68
2022/08/17 07:12:23;;;;;;;;;;;19.30;99.90;;;;;;5095130;28;20058;-69
2022/08/17 07:15:12;;;;;;;95.75;56.60;;;19.30;99.90;;;;;;5094637;28;20494;-70
2022/08/17 07:17:39;;;;;;;97.18;54.05;;;19.40;99.90;;;;;;5112829;28;20044;-69
2022/08/17 07:20:16;;;;;;;86.32;51.47;;;19.40;99.90;;;;;;5094641;28;20040;-69
2022/08/17 07:23:00;;;;;;;96.20;54.78;;;19.40;99.90;;;;;;5094394;28;20042;-69
2022/08/17 07:25:29;;;;;;;95.03;55.65;;;19.50;99.90;;;;;;5112682;28;20044;-70
2022/08/17 07:27:59;;;;;;;81.30;51.33;;;19.50;99.90;;;;;;5112811;28;20384;-70
2022/08/17 07:34:13;;;;;;;85.30;51.88;;;19.60;99.90;;;;;;5095333;28;20054;-70
2022/08/17 07:36:42;;;;;;;90.70;54.88;;;19.60;99.90;;;;;;5116114;28;20040;-70
2022/08/17 07:39:09;;;;;;;80.70;50.45;;;19.70;99.90;;;;;;5096024;28;20614;-70
2022/08/17 07:41:40;;;;;;;93.90;54.78;;;19.70;99.90;;;;;;5116054;28;20561;-70
2022/08/17 07:44:14;;;;;;;77.65;49.85;;;19.70;99.90;;;;;;5098197;28;20058;-70
2022/08/17 07:49:44;;;;;;;63.05;43.80;;;19.70;99.90;;;;;;5097798;28;20563;-70
2022/08/17 07:52:32;;;;;;;65.22;46.20;;;19.60;99.90;;;;;;5097682;28;20048;-70
2022/08/17 07:54:58;;;;;;;68.20;45.95;;;19.60;99.90;;;;;;5115937;28;20039;-70
2022/08/17 07:57:30;;;;;;;68.32;48.20;;;19.60;99.90;;;;;;5115851;28;20384;-70
2022/08/17 07:59:59;;;;;;;81.18;51.40;;;19.60;99.90;;;;;;5098034;28;20119;-69
2022/08/17 08:02:40;;;;;;;77.38;51.45;;;19.70;99.90;;;;;;5080749;28;20353;-68
2022/08/17 08:05:24;;;;;;;74.78;50.22;;;19.80;99.90;;;;;;5115754;28;20043;-67
2022/08/17 08:08:30;;;;;;;71.57;50.03;;;19.90;99.90;;;;;;5114943;28;20115;-66
2022/08/17 08:11:13;;;;;;;67.10;47.28;;;20.10;99.90;;;;;;5115361;28;20047;-67
2022/08/17 08:13:44;;;;;;;68.55;47.83;;;20.30;99.90;;;;;;5116295;27;20050;-68
2022/08/17 08:16:29;;;;;;;80.82;51.33;;;20.30;99.90;;;;;;5080681;28;20039;-69
2022/08/17 08:19:00;;;;;;;60.03;46.33;;;20.40;99.90;;;;;;5097463;28;20040;-68
2022/08/17 08:21:56;;;;;;;59.83;46.08;;;20.40;99.90;;;;;;5115666;28;20054;-68
2022/08/17 08:24:46;;;;;;;62.78;46.95;;;20.40;99.90;;;;;;5080424;28;20039;-69
2022/08/17 08:27:27;;;;;;;60.20;46.30;;;20.30;99.90;;;;;;5080678;28;20053;-69
2022/08/17 08:30:15;;;;;;;54.67;43.92;;;20.30;99.90;;;;;;5097155;28;20036;-69
2022/08/17 08:32:49;;;;;;;64.68;45.75;;;20.20;99.90;;;;;;5115280;28;20039;-69
2022/08/17 08:35:54;;;;;;;52.55;41.28;;;20.20;99.90;;;;;;5097073;28;20043;-68
2022/08/17 08:38:31;;;;;;;41.60;37.03;;;20.20;99.90;;;;;;5094687;28;20048;-69
2022/08/17 08:41:09;;;;;;;41.00;34.95;;;20.30;99.90;;;;;;5115007;28;20088;-68
2022/08/17 08:44:03;;;;;;;39.40;34.00;;;20.60;99.90;;;;;;5114715;28;20051;-68
2022/08/17 08:46:57;;;;;;;38.00;33.83;;;20.90;99.90;;;;;;5113547;28;20065;-65
2022/08/17 08:49:33;;;;;;;39.95;35.25;;;20.90;99.90;;;;;;5095788;28;20067;-67
2022/08/17 08:52:02;;;;;;;42.55;36.67;;;20.80;99.90;;;;;;5096032;28;20495;-67
2022/08/17 08:54:34;;;;;;;46.22;38.53;;;20.70;99.90;;;;;;5096040;28;20042;-66
2022/08/17 08:57:24;;;;;;;44.35;37.58;;;20.50;99.90;;;;;;5095935;28;20066;-64
2022/08/17 09:00:16;;;;;;;52.38;40.17;;;20.40;99.90;;;;;;5113757;28;20031;-66
2022/08/17 09:03:06;;;;;;;51.45;40.85;;;20.20;99.90;;;;;;5090982;28;20042;-67
2022/08/17 09:05:47;;;;;;;58.30;41.47;;;20.10;99.90;;;;;;5095511;28;20519;-67
2022/08/17 09:08:22;;;;;;;51.42;42.05;;;20.00;99.90;;;;;;5094971;28;20038;-67
2022/08/17 09:10:57;;;;;;;47.72;39.53;;;19.90;99.90;;;;;;5095371;28;20063;-66
2022/08/17 09:13:44;;;;;;;57.03;43.03;;;19.90;99.90;;;;;;5095393;28;20047;-66
2022/08/17 09:16:19;;;;;;;59.85;44.15;;;19.80;99.90;;;;;;5113957;28;20369;-66
2022/08/17 09:19:01;;;;;;;61.53;44.95;;;19.70;99.90;;;;;;5096395;28;20039;-64
2022/08/17 09:21:54;;;;;;;63.65;47.25;;;19.60;99.90;;;;;;5095958;28;20036;-64
2022/08/17 09:24:38;;;;;;;62.80;46.97;;;19.70;99.90;;;;;;5050258;28;20047;-65
2022/08/17 09:27:17;;;;;;;70.32;48.55;;;19.70;99.90;;;;;;5095938;28;20061;-65
2022/08/17 09:29:48;;;;;;;78.75;53.55;;;19.90;99.90;;;;;;5114365;28;20384;-66
2022/08/17 09:32:23;;;;;;;80.43;53.40;;;20.10;99.90;;;;;;5114109;28;20051;-67
2022/08/17 09:34:53;;;;;;;66.43;50.45;;;20.50;99.90;;;;;;5095926;28;20039;-67
2022/08/17 09:37:32;;;;;;;56.75;46.13;;;20.90;99.90;;;;;;5114345;28;20400;-69
2022/08/17 09:40:20;;;;;;;56.72;44.70;;;21.30;99.90;;;;;;5093797;28;20396;-68
2022/08/17 09:43:13;;;;;;;57.92;45.17;;;21.60;99.90;;;;;;5095467;28;20040;-69
2022/08/17 09:45:46;;;;;;;51.38;42.20;;;21.70;99.90;;;;;;5095707;28;20119;-70
2022/08/17 09:48:26;;;;;;;54.78;42.60;;;21.70;99.90;;;;;;5077572;28;20032;-68
2022/08/17 09:51:07;;;;;;;54.90;43.35;;;21.60;99.90;;;;;;5078700;28;20061;-68
2022/08/17 09:53:37;;;;;;;52.75;43.05;;;21.60;99.90;;;;;;5095534;28;20048;-68
2022/08/17 09:56:50;;;;;;;52.85;42.92;;;21.50;99.90;;;;;;5095835;28;20122;-68
2022/08/17 09:59:26;;;;;;;48.88;41.90;;;21.50;99.90;;;;;;5112463;28;20357;-68
2022/08/17 10:02:19;;;;;;;50.13;42.38;;;21.40;99.90;;;;;;5078425;28;20051;-68
2022/08/17 10:05:07;;;;;;;47.65;40.17;;;21.30;99.90;;;;;;5095265;28;20076;-67
2022/08/17 10:08:01;;;;;;;45.20;38.88;;;21.30;99.90;;;;;;5095547;28;20043;-68
2022/08/17 10:10:37;;;;;;;42.53;36.60;;;21.20;99.90;;;;;;5092550;28;20043;-66
2022/08/17 10:13:23;;;;;;;41.75;36.58;;;21.20;99.90;;;;;;5113477;28;20054;-67
2022/08/17 10:16:19;;;;;;;50.83;40.95;;;21.20;99.90;;;;;;5094415;28;20110;-67
2022/08/17 10:19:12;;;;;;;45.22;40.10;;;21.30;99.90;;;;;;5113473;28;20051;-67
2022/08/17 10:27:38;;;;;;;40.22;34.85;;;21.40;99.90;;;;;;5113368;28;20036;-66
2022/08/17 10:30:06;;;;;;;40.00;34.38;;;21.40;99.90;;;;;;5095509;28;20364;-66
2022/08/17 10:33:05;;;;;;;39.67;34.50;;;21.40;99.90;;;;;;5095593;28;20061;-65
2022/08/17 10:35:51;;;;;;;36.22;32.45;;;21.40;99.90;;;;;;5113790;28;20040;-67
2022/08/17 10:38:44;;;;;;;38.33;33.40;;;21.50;99.90;;;;;;5094216;28;20040;-66
2022/08/17 10:41:40;;;;;;;30.73;27.42;;;21.50;99.90;;;;;;5078420;28;20175;-66
2022/08/17 10:44:24;;;;;;;27.35;24.55;;;21.50;99.90;;;;;;5078137;28;20166;-66
2022/08/17 10:47:11;;;;;;;27.05;24.27;;;21.50;99.90;;;;;;5113368;28;20044;-66
2022/08/17 10:49:48;;;;;;;24.48;21.98;;;21.50;99.90;;;;;;5094999;28;20036;-66
2022/08/17 10:52:24;;;;;;;21.80;19.60;;;21.60;99.90;;;;;;5095533;28;20040;-66
2022/08/17 10:54:50;;;;;;;19.67;17.45;;;21.60;99.90;;;;;;5113026;28;20151;-65
2022/08/17 10:57:28;;;;;;;22.30;19.98;;;21.60;99.90;;;;;;5094925;28;20206;-65
2022/08/17 11:00:11;;;;;;;21.58;19.27;;;21.70;99.90;;;;;;5113232;28;20042;-65
2022/08/17 11:02:52;;;;;;;23.20;20.55;;;21.70;99.90;;;;;;5113352;28;20388;-65
2022/08/17 11:05:36;;;;;;;24.65;20.23;;;21.80;99.90;;;;;;5094709;28;20043;-65
2022/08/17 11:08:24;;;;;;;22.15;19.70;;;21.90;99.90;;;;;;5094847;28;20083;-66
2022/08/17 11:11:22;;;;;;;20.88;18.77;;;22.00;99.90;;;;;;5095134;28;20653;-67
2022/08/17 11:14:16;;;;;;;20.23;17.77;;;22.10;99.90;;;;;;5095184;28;20055;-66
2022/08/17 11:17:00;;;;;;;19.50;15.82;;;22.30;99.90;;;;;;5095547;28;20078;-66
2022/08/17 11:19:54;;;;;;;18.90;17.20;;;22.50;99.90;;;;;;5096565;28;20048;-66
2022/08/17 11:22:38;;;;;;;17.25;15.38;;;22.60;99.90;;;;;;5095104;28;20075;-66
2022/08/17 11:25:19;;;;;;;17.20;15.40;;;22.70;99.90;;;;;;5096421;28;20040;-66
2022/08/17 11:27:52;;;;;;;17.88;16.15;;;22.90;99.90;;;;;;5096218;28;20464;-66
2022/08/17 11:30:43;;;;;;;18.48;16.63;;;23.10;99.90;;;;;;5094848;28;20075;-66
2022/08/17 11:33:27;;;;;;;21.10;17.80;;;23.30;99.90;;;;;;5098364;28;20503;-66
2022/08/17 11:36:17;;;;;;;23.65;21.23;;;23.60;99.90;;;;;;5098082;28;20484;-66
2022/08/17 11:38:47;;;;;;;22.13;20.02;;;24.00;99.90;;;;;;5103545;28;20796;-66
2022/08/17 11:41:16;;;;;;;22.15;20.05;;;24.30;99.90;;;;;;5097714;28;20052;-66
2022/08/17 11:44:03;;;;;;;24.35;21.90;;;24.40;99.90;;;;;;5098164;28;20040;-66
2022/08/17 11:52:43;;;;;;;25.67;23.05;;;23.80;99.90;;;;;;5098470;28;20044;-66
2022/08/17 11:55:33;;;;;;;26.15;23.45;;;23.70;99.90;;;;;;5098003;28;20036;-66
2022/08/17 11:58:25;;;;;;;25.92;23.13;;;23.70;99.90;;;;;;5080926;28;20506;-66
2022/08/17 12:00:57;;;;;;;26.33;23.63;;;23.50;99.90;;;;;;5115858;28;20039;-66
2022/08/17 12:03:32;;;;;;;27.30;23.42;;;23.50;99.90;;;;;;5080875;28;20039;-66
2022/08/17 12:06:22;;;;;;;27.20;23.60;;;23.40;99.90;;;;;;5115891;28;20035;-67
2022/08/17 12:08:55;;;;;;;25.70;23.23;;;23.40;99.90;;;;;;5113838;28;20107;-66
2022/08/17 12:11:47;;;;;;;27.85;25.02;;;23.40;99.90;;;;;;5115709;28;20499;-66
2022/08/17 12:14:25;;;;;;;26.90;24.23;;;23.40;99.90;;;;;;5092841;28;20048;-66
2022/08/17 12:17:01;;;;;;;28.85;25.98;;;23.40;99.90;;;;;;5115980;28;20046;-66
2022/08/17 12:19:28;;;;;;;28.73;25.85;;;23.30;99.90;;;;;;5115733;28;20044;-66
2022/08/17 12:22:03;;;;;;;30.13;26.92;;;23.20;99.90;;;;;;5114692;28;20036;-67
2022/08/17 12:25:07;;;;;;;29.70;26.48;;;23.10;99.90;;;;;;5115881;28;20039;-66
2022/08/17 12:27:35;;;;;;;31.58;26.40;;;23.10;99.90;;;;;;5084620;28;20047;-65
2022/08/17 12:30:10;;;;;;;29.08;25.90;;;23.00;99.90;;;;;;5115557;28;20115;-66
2022/08/17 12:32:39;;;;;;;31.50;27.95;;;23.00;99.90;;;;;;5097095;28;20127;-66
2022/08/17 12:35:31;;;;;;;30.13;26.92;;;22.90;99.90;;;;;;5096987;28;20040;-66
2022/08/17 12:37:58;;;;;;;28.65;25.63;;;22.90;99.90;;;;;;5097223;28;20039;-66
2022/08/17 12:40:33;;;;;;;29.17;25.75;;;22.80;99.90;;;;;;5095422;28;20153;-67
2022/08/17 12:43:16;;;;;;;30.73;27.08;;;22.80;99.90;;;;;;5096992;28;20043;-67
2022/08/17 12:45:43;;;;;;;29.27;26.17;;;22.70;99.90;;;;;;5115119;28;20532;-67
2022/08/17 12:48:22;;;;;;;30.60;27.33;;;22.70;99.90;;;;;;5080113;28;20520;-66
2022/08/17 12:50:49;;;;;;;28.17;25.17;;;22.70;99.90;;;;;;5115088;28;20645;-66
2022/08/17 12:53:33;;;;;;;28.50;25.70;;;22.70;99.90;;;;;;5096972;28;20039;-67
2022/08/17 12:56:01;;;;;;;26.13;23.63;;;22.70;99.90;;;;;;5096554;28;20043;-67
2022/08/17 12:58:30;;;;;;;29.95;26.75;;;22.80;99.90;;;;;;5114988;28;20153;-67
2022/08/17 13:01:01;;;;;;;26.87;24.07;;;22.90;99.90;;;;;;5079957;28;20032;-67
2022/08/17 13:03:39;;;;;;;28.38;25.33;;;23.00;99.90;;;;;;5096552;28;20036;-66
2022/08/17 13:06:13;;;;;;;28.42;25.30;;;23.00;99.90;;;;;;5079849;28;20081;-67
2022/08/17 13:08:42;;;;;;;28.85;25.88;;;22.90;99.90;;;;;;5112721;28;20043;-66
2022/08/17 13:11:17;;;;;;;30.63;27.55;;;22.90;99.90;;;;;;5079403;28;20051;-67
2022/08/17 13:13:55;;;;;;;28.67;25.65;;;22.80;99.90;;;;;;5096321;28;20040;-67
2022/08/17 13:16:22;;;;;;;28.50;25.52;;;22.80;99.90;;;;;;5114660;28;20031;-67
2022/08/17 13:19:07;;;;;;;30.10;27.10;;;22.70;99.90;;;;;;5096195;28;20047;-67
2022/08/17 13:21:36;;;;;;;30.83;27.83;;;22.60;99.90;;;;;;5096279;28;20088;-67
2022/08/17 13:24:29;;;;;;;30.10;26.77;;;22.60;99.90;;;;;;5096087;28;20032;-67
2022/08/17 13:27:00;;;;;;;27.40;24.58;;;22.60;99.90;;;;;;5079760;28;20042;-67
2022/08/17 13:29:43;;;;;;;27.92;25.13;;;22.60;99.90;;;;;;5110959;28;20122;-66
2022/08/17 13:32:10;;;;;;;27.98;24.65;;;22.50;99.90;;;;;;5112782;28;20043;-66
2022/08/17 13:34:41;;;;;;;30.70;25.40;;;22.60;99.90;;;;;;5093769;28;20059;-65
2022/08/17 13:37:25;;;;;;;28.70;25.42;;;22.60;99.90;;;;;;5092571;28;20036;-66
2022/08/17 13:40:09;;;;;;;26.73;24.00;;;22.60;99.90;;;;;;5090455;28;20127;-65